createdAt,value
2022-08-26T00:01:07.526Z,25.61
2022-08-26T00:04:04.630Z,25.56
2022-08-26T00:07:01.729Z,25.51
2022-08-26T00:09:59.502Z,25.51
2022-08-26T00:12:57.748Z,25.44
2022-08-26T00:15:54.752Z,25.43
2022-08-26T00:18:51.978Z,25.50
2022-08-26T00:21:49.653Z,25.58
2022-08-26T00:24:47.824Z,25.66
2022-08-26T00:27:45.776Z,25.69
2022-08-26T00:30:42.555Z,25.64
2022-08-26T00:33:43.080Z,25.64
2022-08-26T00:36:41.735Z,25.60
2022-08-26T00:39:40.377Z,25.58
2022-08-26T00:42:38.068Z,25.52
2022-08-26T00:45:45.053Z,25.48
2022-08-26T00:48:43.923Z,25.40
2022-08-26T00:51:49.643Z,25.40
2022-08-26T00:54:56.430Z,25.26
2022-08-26T00:57:53.552Z,25.20
2022-08-26T01:00:50.731Z,25.23
2022-08-26T01:03:49.863Z,25.15
2022-08-26T01:06:48.629Z,25.00
2022-08-26T01:09:46.465Z,24.89
2022-08-26T01:12:46.844Z,25.00
2022-08-26T01:15:46.004Z,25.07
2022-08-26T01:18:44.221Z,25.15
2022-08-26T01:21:48.741Z,25.19
2022-08-26T01:24:45.747Z,25.11
2022-08-26T01:27:44.825Z,24.88
2022-08-26T01:30:46.942Z,24.80
2022-08-26T01:33:56.613Z,24.78
2022-08-26T01:37:02.862Z,24.76
2022-08-26T01:39:59.455Z,24.69
2022-08-26T01:42:56.797Z,24.62
2022-08-26T01:45:57.050Z,24.57
2022-08-26T01:48:55.234Z,24.53
2022-08-26T01:51:54.274Z,24.52
2022-08-26T01:54:52.196Z,24.44
2022-08-26T01:57:52.346Z,24.34
2022-08-26T02:00:53.897Z,24.23
2022-08-26T02:04:19.137Z,24.18
2022-08-26T02:07:18.262Z,24.06
2022-08-26T02:10:16.485Z,23.94
2022-08-26T02:13:16.561Z,23.86
2022-08-26T02:16:16.159Z,23.85
2022-08-26T02:19:35.780Z,23.89
2022-08-26T02:22:32.751Z,23.99
2022-08-26T02:25:46.121Z,23.89
2022-08-26T02:29:04.298Z,23.80
2022-08-26T02:32:02.360Z,23.72
2022-08-26T02:34:59.598Z,23.80
2022-08-26T02:37:57.045Z,23.94
2022-08-26T02:40:54.944Z,23.89
2022-08-26T02:43:51.766Z,23.94
2022-08-26T02:46:49.242Z,24.07
2022-08-26T02:49:47.706Z,24.14
2022-08-26T02:52:45.559Z,24.01
2022-08-26T02:55:42.953Z,23.85
2022-08-26T02:58:40.604Z,23.81
2022-08-26T03:01:38.952Z,24.10
2022-08-26T03:04:35.735Z,24.44
2022-08-26T03:07:32.936Z,24.26
2022-08-26T03:10:32.198Z,24.23
2022-08-26T03:13:29.858Z,24.02
2022-08-26T03:16:27.090Z,23.83
2022-08-26T03:19:31.021Z,23.65
2022-08-26T03:22:28.956Z,23.72
2022-08-26T03:25:26.128Z,23.84
2022-08-26T03:28:24.658Z,24.07
2022-08-26T03:31:24.781Z,24.17
2022-08-26T03:34:22.689Z,24.02
2022-08-26T03:37:20.891Z,23.65
2022-08-26T03:40:20.302Z,23.89
2022-08-26T03:43:18.117Z,23.50
2022-08-26T03:46:16.453Z,23.64
2022-08-26T03:49:13.869Z,24.05
2022-08-26T03:52:13.241Z,24.24
2022-08-26T03:55:11.030Z,24.20
2022-08-26T03:58:07.954Z,24.23
2022-08-26T04:01:04.898Z,24.04
2022-08-26T04:04:02.138Z,23.81
2022-08-26T04:07:00.958Z,23.25
2022-08-26T04:09:58.068Z,22.89
2022-08-26T04:12:55.069Z,23.40
2022-08-26T04:15:52.080Z,23.67
2022-08-26T04:18:51.841Z,23.58
2022-08-26T04:21:51.059Z,23.23
2022-08-26T04:24:49.188Z,22.89
2022-08-26T04:27:46.933Z,22.94
2022-08-26T04:30:46.477Z,22.59
2022-08-26T04:33:44.523Z,22.25
2022-08-26T04:36:44.277Z,22.44
2022-08-26T04:39:42.212Z,22.35
2022-08-26T04:42:42.576Z,22.46
2022-08-26T04:45:40.153Z,22.52
2022-08-26T04:48:37.314Z,23.01
2022-08-26T04:51:35.942Z,22.70
2022-08-26T04:54:33.763Z,22.23
2022-08-26T04:57:31.960Z,22.26
2022-08-26T05:00:29.834Z,22.56
2022-08-26T05:03:30.438Z,22.62
2022-08-26T05:06:28.165Z,22.89
2022-08-26T05:09:25.485Z,22.59
2022-08-26T05:12:23.439Z,22.35
2022-08-26T05:15:20.816Z,23.02
2022-08-26T05:18:21.214Z,23.21
2022-08-26T05:21:24.125Z,23.63
2022-08-26T05:24:20.968Z,23.83
2022-08-26T05:27:17.783Z,23.46
2022-08-26T05:30:14.799Z,23.26
2022-08-26T05:33:12.112Z,23.20
2022-08-26T05:36:10.524Z,23.07
2022-08-26T05:39:10.424Z,23.03
2022-08-26T05:42:08.890Z,22.84
2022-08-26T05:45:07.580Z,22.93
2022-08-26T05:48:08.011Z,23.00
2022-08-26T05:51:07.254Z,22.98
2022-08-26T05:54:05.536Z,22.96
2022-08-26T05:57:02.915Z,22.92
2022-08-26T06:00:00.936Z,22.95
2022-08-26T06:02:58.257Z,23.03
2022-08-26T06:05:56.073Z,23.03
2022-08-26T06:08:52.997Z,23.00
2022-08-26T06:11:49.791Z,22.94
2022-08-26T06:14:49.082Z,22.77
2022-08-26T06:17:46.346Z,22.63
2022-08-26T06:20:57.285Z,22.55
2022-08-26T06:24:17.293Z,22.55
2022-08-26T06:27:15.335Z,22.34
2022-08-26T06:30:13.221Z,22.23
2022-08-26T06:33:11.237Z,22.40
2022-08-26T06:36:08.257Z,22.54
2022-08-26T06:39:07.123Z,22.39
2022-08-26T06:42:06.185Z,22.44
2022-08-26T06:45:04.285Z,22.42
2022-08-26T06:48:02.326Z,22.32
2022-08-26T06:51:05.647Z,22.18
2022-08-26T06:54:03.990Z,22.31
2022-08-26T06:57:01.217Z,22.42
2022-08-26T06:59:58.271Z,22.44
2022-08-26T07:02:55.023Z,22.55
2022-08-26T07:05:52.019Z,22.64
2022-08-26T07:08:52.368Z,22.64
2022-08-26T07:11:51.287Z,22.60
2022-08-26T07:14:49.647Z,22.67
2022-08-26T07:17:47.199Z,22.67
2022-08-26T07:20:44.920Z,22.71
2022-08-26T07:23:42.316Z,22.94
2022-08-26T07:26:38.816Z,23.03
2022-08-26T07:29:40.430Z,22.87
2022-08-26T07:32:37.978Z,22.95
2022-08-26T07:35:35.322Z,23.03
2022-08-26T07:38:33.905Z,23.19
2022-08-26T07:41:31.239Z,23.34
2022-08-26T07:44:29.684Z,23.19
2022-08-26T07:47:26.960Z,22.87
2022-08-26T07:50:50.197Z,22.88
2022-08-26T07:53:42.486Z,22.96
2022-08-26T07:56:39.793Z,23.04
2022-08-26T07:59:40.689Z,23.18
2022-08-26T08:02:38.058Z,23.34
2022-08-26T08:05:36.843Z,23.46
2022-08-26T08:08:40.775Z,23.53
2022-08-26T08:11:38.232Z,23.57
2022-08-26T08:14:37.206Z,23.67
2022-08-26T08:17:35.227Z,23.69
2022-08-26T08:20:33.563Z,23.76
2022-08-26T08:23:31.673Z,23.81
2022-08-26T08:26:28.928Z,23.77
2022-08-26T08:29:26.709Z,23.88
2022-08-26T08:32:24.151Z,23.92
2022-08-26T08:35:22.577Z,23.80
2022-08-26T08:38:20.174Z,23.88
2022-08-26T08:41:35.709Z,23.97
2022-08-26T08:44:32.819Z,24.04
2022-08-26T08:47:39.275Z,24.13
2022-08-26T08:50:43.814Z,24.14
2022-08-26T08:53:43.177Z,24.25
2022-08-26T08:56:42.928Z,24.38
2022-08-26T09:00:12.576Z,24.47
2022-08-26T09:03:16.287Z,24.44
2022-08-26T09:06:20.616Z,24.54
2022-08-26T09:09:23.454Z,24.66
2022-08-26T09:12:29.171Z,24.73
2022-08-26T09:15:34.163Z,24.77
2022-08-26T09:19:04.829Z,24.79
2022-08-26T09:22:05.738Z,24.61
2022-08-26T09:25:11.169Z,24.70
2022-08-26T09:28:08.364Z,24.91
2022-08-26T09:31:13.211Z,24.99
2022-08-26T09:34:21.129Z,25.04
2022-08-26T09:37:18.114Z,25.28
2022-08-26T09:40:20.320Z,25.30
2022-08-26T09:43:22.412Z,25.30
2022-08-26T09:46:26.158Z,25.51
2022-08-26T09:49:41.382Z,25.72
2022-08-26T09:52:38.123Z,25.71
2022-08-26T09:55:39.481Z,25.57
2022-08-26T09:58:37.997Z,25.57
2022-08-26T10:01:41.864Z,25.73
2022-08-26T10:04:39.010Z,25.68
2022-08-26T10:07:47.254Z,25.68
2022-08-26T10:10:45.138Z,25.87
2022-08-26T10:13:48.434Z,26.01
2022-08-26T10:17:00.243Z,25.92
2022-08-26T10:20:09.855Z,25.96
2022-08-26T10:23:24.607Z,26.05
2022-08-26T10:26:40.842Z,26.12
2022-08-26T10:29:46.020Z,26.13
2022-08-26T10:32:53.930Z,26.08
2022-08-26T10:35:53.744Z,26.27
2022-08-26T10:38:51.370Z,26.22
2022-08-26T10:41:50.210Z,26.10
2022-08-26T10:44:47.489Z,26.21
2022-08-26T10:48:17.181Z,26.16
2022-08-26T10:51:22.340Z,26.40
2022-08-26T10:54:47.621Z,26.54
2022-08-26T10:57:59.679Z,26.56
2022-08-26T11:01:29.069Z,26.53
2022-08-26T11:04:43.403Z,26.45
2022-08-26T11:07:56.453Z,26.49
2022-08-26T11:10:58.844Z,26.75
2022-08-26T11:14:01.219Z,26.90
2022-08-26T11:16:58.881Z,27.07
2022-08-26T11:20:01.431Z,27.11
2022-08-26T11:23:12.877Z,26.88
2022-08-26T11:26:11.012Z,26.97
2022-08-26T11:29:13.370Z,26.90
2022-08-26T11:32:27.712Z,27.18
2022-08-26T11:35:34.675Z,27.14
2022-08-26T11:38:35.186Z,27.22
2022-08-26T11:41:32.677Z,26.96
2022-08-26T11:44:40.573Z,27.07
2022-08-26T11:47:38.236Z,26.95
2022-08-26T11:50:35.616Z,27.10
2022-08-26T11:53:35.849Z,27.21
2022-08-26T11:56:33.991Z,26.95
2022-08-26T12:02:39.971Z,27.05
2022-08-26T12:05:42.312Z,27.20
2022-08-26T12:08:42.918Z,27.33
2022-08-26T12:11:41.272Z,27.41
2022-08-26T12:14:41.226Z,27.36
2022-08-26T12:17:39.637Z,27.49
2022-08-26T12:20:48.664Z,27.55
2022-08-26T12:23:46.732Z,27.88
2022-08-26T12:26:44.426Z,27.76
2022-08-26T12:29:41.699Z,27.72
2022-08-26T12:32:57.486Z,27.57
2022-08-26T12:35:56.691Z,27.91
2022-08-26T12:38:58.092Z,27.88
2022-08-26T12:41:59.976Z,27.62
2022-08-26T12:45:01.882Z,27.24
2022-08-26T12:48:21.517Z,27.31
2022-08-26T12:51:28.165Z,27.33
2022-08-26T12:54:45.054Z,27.12
2022-08-26T12:57:42.705Z,27.30
2022-08-26T13:00:42.030Z,27.16
2022-08-26T13:03:45.424Z,27.10
2022-08-26T13:06:42.665Z,27.08
2022-08-26T13:09:40.352Z,26.97
2022-08-26T13:12:38.350Z,27.04
2022-08-26T13:15:35.431Z,27.17
2022-08-26T13:18:33.604Z,27.25
2022-08-26T13:21:37.769Z,27.02
2022-08-26T13:24:37.154Z,26.99
2022-08-26T13:27:34.287Z,26.91
2022-08-26T13:30:31.365Z,26.91
2022-08-26T13:33:28.763Z,26.98
2022-08-26T13:36:27.025Z,27.00
2022-08-26T13:39:24.581Z,27.09
2022-08-26T13:42:22.395Z,27.08
2022-08-26T13:45:19.511Z,26.92
2022-08-26T13:48:20.282Z,26.91
2022-08-26T13:51:20.384Z,26.80
2022-08-26T13:54:18.005Z,27.06
2022-08-26T13:57:15.513Z,27.23
2022-08-26T14:00:13.096Z,27.13
2022-08-26T14:03:13.425Z,26.95
2022-08-26T14:06:10.646Z,26.81
2022-08-26T14:09:07.789Z,26.82
2022-08-26T14:12:08.582Z,26.71
2022-08-26T14:15:06.888Z,26.75
2022-08-26T14:18:05.443Z,26.67
2022-08-26T14:21:06.060Z,26.68
2022-08-26T14:24:04.540Z,26.77
2022-08-26T14:27:01.338Z,26.86
2022-08-26T14:29:59.586Z,26.82
2022-08-26T14:32:57.427Z,26.75
2022-08-26T14:36:14.416Z,26.72
2022-08-26T14:39:12.234Z,26.63
2022-08-26T14:42:10.286Z,26.59
2022-08-26T14:45:09.515Z,26.47
2022-08-26T14:48:07.700Z,26.31
2022-08-26T14:51:05.743Z,26.40
2022-08-26T14:54:14.853Z,26.31
2022-08-26T14:57:13.548Z,26.28
2022-08-26T15:00:12.276Z,26.34
2022-08-26T15:03:09.762Z,26.36
2022-08-26T15:06:07.375Z,26.58
2022-08-26T15:09:04.559Z,26.45
2022-08-26T15:12:01.520Z,26.38
2022-08-26T15:14:58.592Z,26.27
2022-08-26T15:17:56.167Z,26.27
2022-08-26T15:20:53.427Z,26.06
2022-08-26T15:23:50.687Z,26.25
2022-08-26T15:26:48.017Z,26.31
2022-08-26T15:29:45.618Z,26.42
2022-08-26T15:32:42.420Z,26.60
2022-08-26T15:35:40.280Z,26.49
2022-08-26T15:38:42.279Z,26.39
2022-08-26T15:41:39.489Z,26.56
2022-08-26T15:44:37.075Z,26.46
2022-08-26T15:47:38.111Z,26.26
2022-08-26T15:51:00.332Z,25.97
2022-08-26T15:53:57.894Z,25.93
2022-08-26T15:56:55.852Z,25.88
2022-08-26T15:59:53.588Z,26.03
2022-08-26T16:02:50.581Z,26.11
2022-08-26T16:05:47.494Z,26.07
2022-08-26T16:08:45.222Z,26.03
2022-08-26T16:11:42.412Z,26.14
2022-08-26T16:14:39.605Z,25.92
2022-08-26T16:17:36.822Z,26.01
2022-08-26T16:20:36.582Z,26.13
2022-08-26T16:23:35.110Z,25.98
2022-08-26T16:26:34.144Z,25.82
2022-08-26T16:29:32.663Z,25.88
2022-08-26T16:32:31.277Z,25.82
2022-08-26T16:35:28.780Z,25.76
2022-08-26T16:38:25.674Z,25.81
2022-08-26T16:41:23.640Z,25.73
2022-08-26T16:44:22.044Z,25.70
2022-08-26T16:47:20.722Z,25.61
2022-08-26T16:50:18.164Z,25.70
2022-08-26T16:53:15.660Z,25.60
2022-08-26T16:56:14.026Z,25.63
2022-08-26T16:59:11.874Z,25.32
2022-08-26T17:02:08.767Z,25.31
2022-08-26T17:05:06.372Z,25.25
2022-08-26T17:08:04.183Z,25.28
2022-08-26T17:11:04.899Z,24.98
2022-08-26T17:14:02.988Z,24.70
2022-08-26T17:17:00.812Z,24.62
2022-08-26T17:19:59.316Z,24.60
2022-08-26T17:22:56.786Z,24.48
2022-08-26T17:25:53.515Z,24.39
2022-08-26T17:28:50.963Z,24.46
2022-08-26T17:31:48.727Z,24.22
2022-08-26T17:34:45.672Z,24.21
2022-08-26T17:37:42.764Z,24.25
2022-08-26T17:40:40.009Z,24.07
2022-08-26T17:43:38.440Z,24.17
2022-08-26T17:46:38.486Z,24.10
2022-08-26T17:49:35.622Z,24.07
2022-08-26T17:52:32.883Z,24.11
2022-08-26T17:55:29.640Z,24.24
2022-08-26T17:58:26.655Z,24.22
2022-08-26T18:01:27.430Z,24.21
2022-08-26T18:04:24.739Z,24.03
2022-08-26T18:07:21.796Z,23.96
2022-08-26T18:10:20.044Z,24.04
2022-08-26T18:13:17.511Z,24.14
2022-08-26T18:16:15.155Z,24.05
2022-08-26T18:19:12.877Z,24.03
2022-08-26T18:22:10.808Z,24.00
2022-08-26T18:25:12.712Z,24.18
2022-08-26T18:28:09.646Z,24.28
2022-08-26T18:31:07.822Z,24.23
2022-08-26T18:34:05.883Z,23.91
2022-08-26T18:37:02.928Z,23.73
2022-08-26T18:40:00.506Z,23.59
2022-08-26T18:42:57.648Z,23.61
2022-08-26T18:46:05.282Z,23.72
2022-08-26T18:49:02.825Z,23.70
2022-08-26T18:51:59.864Z,23.69
2022-08-26T18:54:56.868Z,23.42
2022-08-26T18:57:54.107Z,23.32
2022-08-26T19:00:52.105Z,23.40
2022-08-26T19:03:51.408Z,23.65
2022-08-26T19:06:50.785Z,23.64
2022-08-26T19:09:47.489Z,23.47
2022-08-26T19:12:51.944Z,23.36
2022-08-26T19:15:49.551Z,23.47
2022-08-26T19:18:47.132Z,23.42
2022-08-26T19:21:44.872Z,23.22
2022-08-26T19:24:41.687Z,23.29
2022-08-26T19:27:38.587Z,23.32
2022-08-26T19:30:42.828Z,23.34
2022-08-26T19:33:40.301Z,23.44
2022-08-26T19:36:38.493Z,23.36
2022-08-26T19:39:41.288Z,23.48
2022-08-26T19:42:39.112Z,23.29
2022-08-26T19:45:36.926Z,23.24
2022-08-26T19:48:33.833Z,23.26
2022-08-26T19:51:32.654Z,23.29
2022-08-26T19:54:30.085Z,23.23
2022-08-26T19:57:27.909Z,23.25
2022-08-26T20:00:26.463Z,23.25
2022-08-26T20:03:23.879Z,23.26
2022-08-26T20:06:21.045Z,23.18
2022-08-26T20:09:18.688Z,22.98
2022-08-26T20:12:17.426Z,23.02
2022-08-26T20:15:15.032Z,23.02
2022-08-26T20:18:31.367Z,23.04
2022-08-26T20:21:31.665Z,22.94
2022-08-26T20:24:30.835Z,22.96
2022-08-26T20:27:38.270Z,23.04
2022-08-26T20:30:35.571Z,22.97
2022-08-26T20:33:46.053Z,22.80
2022-08-26T20:36:44.254Z,22.49
2022-08-26T20:39:41.872Z,22.56
2022-08-26T20:42:38.952Z,22.54
2022-08-26T20:45:35.648Z,22.48
2022-08-26T20:48:32.770Z,22.52
2022-08-26T20:51:31.243Z,22.60
2022-08-26T20:54:28.768Z,22.50
2022-08-26T20:57:25.603Z,22.88
2022-08-26T21:00:24.611Z,23.00
2022-08-26T21:03:25.294Z,23.11
2022-08-26T21:06:23.270Z,22.99
2022-08-26T21:09:24.795Z,23.02
2022-08-26T21:12:22.275Z,22.78
2022-08-26T21:15:19.884Z,22.77
2022-08-26T21:18:16.980Z,22.94
2022-08-26T21:21:14.158Z,22.88
2022-08-26T21:24:12.791Z,22.87
2022-08-26T21:27:09.804Z,22.84
2022-08-26T21:30:07.311Z,22.86
2022-08-26T21:33:04.904Z,22.77
2022-08-26T21:36:01.931Z,22.73
2022-08-26T21:38:59.243Z,22.87
2022-08-26T21:41:58.040Z,22.74
2022-08-26T21:44:57.636Z,22.44
2022-08-26T21:47:54.922Z,22.67
2022-08-26T21:50:51.913Z,22.72
2022-08-26T21:53:48.661Z,22.81
2022-08-26T21:56:46.893Z,22.97
2022-08-26T21:59:44.188Z,23.06
2022-08-26T22:02:41.872Z,23.00
2022-08-26T22:05:46.398Z,22.87
2022-08-26T22:08:44.190Z,22.90
2022-08-26T22:11:41.946Z,22.81
2022-08-26T22:14:39.766Z,22.80
2022-08-26T22:17:37.993Z,22.77
2022-08-26T22:20:35.221Z,22.78
2022-08-26T22:23:33.226Z,22.57
2022-08-26T22:26:31.755Z,22.66
2022-08-26T22:29:28.655Z,22.70
2022-08-26T22:32:25.794Z,22.69
2022-08-26T22:35:28.403Z,22.48
2022-08-26T22:38:26.907Z,22.68
2022-08-26T22:41:24.046Z,22.83
2022-08-26T22:44:22.347Z,22.94
2022-08-26T22:47:19.989Z,22.84
2022-08-26T22:50:17.204Z,22.82
2022-08-26T22:53:16.071Z,22.80
2022-08-26T22:56:14.222Z,22.75
2022-08-26T22:59:12.208Z,22.72
2022-08-26T23:02:12.000Z,22.59
2022-08-26T23:05:09.960Z,22.56
2022-08-26T23:08:08.736Z,22.52
2022-08-26T23:11:10.025Z,22.65
2022-08-26T23:14:06.855Z,22.78
2022-08-26T23:17:03.958Z,22.72
2022-08-26T23:20:02.101Z,22.76
2022-08-26T23:23:00.096Z,22.73
2022-08-26T23:25:57.208Z,22.69
2022-08-26T23:28:55.323Z,22.57
2022-08-26T23:31:53.752Z,22.66
2022-08-26T23:34:58.855Z,22.67
2022-08-26T23:37:57.828Z,22.66
2022-08-26T23:40:57.065Z,22.64
2022-08-26T23:43:54.197Z,22.73
2022-08-26T23:46:51.791Z,22.51
2022-08-26T23:49:49.218Z,22.53
2022-08-26T23:53:05.741Z,22.69
2022-08-26T23:56:03.323Z,22.81
2022-08-26T23:59:00.952Z,22.69
